Aérodrome :
LOGIN :

S'inscrire | Disclaimer

   EN    FR    IT 

 










Légende :    VFR   VFR Marginal   IFR   IFR Intensif   IFR Très Intensif
Visi : 
Plafond : 
>= 8 km
>= 3000ft
5 à 8 km
1000 à 3000 ft
1500m à 5 km
500 à 1000 ft
800 à 1500m
200 à 500 ft
< 800m
< 200 ft
Symboles :   Orages  Brouillard  Fortes neiges  Fortes précipitations  Vent > 20 kt
SIGMETs :   Divers  Orages  Givrage  Turbulence  Onde Orograph.  Cendres Volcan.






- Altitude de l'aérodrome : 138 ft
- Code IATA : BIO


LEBB - Bilbao

DERNIER METAR :
  • 161030Z 12013KT 080V150 CAVOK 15/06 Q1000 NOSIG

METARs EXPIRÉS :
  • 161000Z 12015KT 070V160 CAVOK 14/06 Q1000 NOSIG
  • 160930Z 12017KT 080V150 CAVOK 14/06 Q1001 NOSIG
  • 160900Z 11016KT 070V140 CAVOK 14/06 Q1001 NOSIG
  • 160830Z 12016KT CAVOK 14/06 Q1001 NOSIG
  • 160800Z 11013KT 080V150 CAVOK 14/06 Q1001 NOSIG

TAF TAF LEBB
Valide du 16 à 06h jusqu'au 17 à 06h UTC


160500Z 1606/1706 13009KT 9999 SCT055 TX17/1615Z TN08/1706Z
BECMG 1700/1702 30010KT



MET'MAP, la Météo Aéronautique d'un coup d'oeil ! - Copyright ORBIFLY Décembre 2007 - Disclaimer

ORBIFLY MET'MAP TEAM :

Programmation & Développement : Alexandra Zaïnal
Sur une idée originale de : Baudouin d'Aumeries
Assistance à la programmation : Marc-Olivier Méhu
Soutien technique & logistique : Manuel Goepfert

Contact : metmap@orbifly.com




SOURCES & CREDITS :

   NOAA